createdAt,value
2017-09-30T00:01:40.600Z,94.33
2017-09-30T00:04:09.657Z,94.30
2017-09-30T00:06:38.720Z,94.22
2017-09-30T00:09:07.923Z,94.06
2017-09-30T00:11:36.979Z,93.98
2017-09-30T00:14:06.023Z,93.88
2017-09-30T00:16:35.078Z,93.48
2017-09-30T00:19:04.138Z,93.60
2017-09-30T00:21:34.192Z,94.01
2017-09-30T00:24:03.226Z,94.27
2017-09-30T00:26:32.295Z,93.37
2017-09-30T00:29:01.354Z,93.66
2017-09-30T00:31:31.393Z,93.49
2017-09-30T00:34:01.413Z,93.78
2017-09-30T00:36:30.454Z,93.57
2017-09-30T00:38:59.573Z,93.78
2017-09-30T00:41:28.629Z,93.88
2017-09-30T00:43:57.662Z,94.43
2017-09-30T00:46:26.721Z,94.60
2017-09-30T00:48:55.770Z,95.39
2017-09-30T00:51:24.863Z,95.09
2017-09-30T00:53:53.902Z,94.91
2017-09-30T00:56:23.003Z,94.97
2017-09-30T00:58:52.070Z,94.55
2017-09-30T01:01:21.122Z,95.67
2017-09-30T01:03:50.275Z,95.88
2017-09-30T01:06:19.407Z,95.38
2017-09-30T01:08:48.565Z,94.48
2017-09-30T01:11:19.868Z,93.79
2017-09-30T01:13:49.007Z,92.69
2017-09-30T01:16:18.103Z,93.81
2017-09-30T01:18:48.239Z,95.41
2017-09-30T01:21:17.710Z,95.02
2017-09-30T01:23:47.158Z,95.02
2017-09-30T01:26:16.610Z,94.49
2017-09-30T01:28:45.837Z,94.25
2017-09-30T01:31:15.322Z,94.18
2017-09-30T01:33:44.408Z,94.30
2017-09-30T01:36:15.514Z,94.28
2017-09-30T01:38:44.613Z,94.07
2017-09-30T01:41:13.774Z,94.16
2017-09-30T01:43:42.805Z,93.91
2017-09-30T01:46:12.003Z,93.88
2017-09-30T01:48:41.068Z,94.42
2017-09-30T01:51:10.098Z,94.74
2017-09-30T01:53:39.149Z,94.67
2017-09-30T01:56:08.202Z,95.01
2017-09-30T01:58:37.401Z,94.68
2017-09-30T02:01:06.452Z,94.28
2017-09-30T02:03:35.499Z,94.29
2017-09-30T02:06:04.558Z,94.19
2017-09-30T02:08:33.616Z,94.34
2017-09-30T02:11:02.646Z,93.99
2017-09-30T02:13:31.699Z,94.35
2017-09-30T02:16:00.767Z,93.89
2017-09-30T02:18:30.037Z,94.88
2017-09-30T02:20:59.074Z,94.65
2017-09-30T02:23:28.123Z,94.84
2017-09-30T02:25:57.207Z,93.33
2017-09-30T02:28:26.266Z,93.00
2017-09-30T02:30:56.262Z,92.84
2017-09-30T02:33:25.306Z,93.15
2017-09-30T02:35:54.359Z,93.49
2017-09-30T02:38:23.446Z,93.90
2017-09-30T02:40:52.547Z,94.21
2017-09-30T02:43:21.561Z,93.70
2017-09-30T02:45:50.628Z,94.08
2017-09-30T02:48:19.678Z,93.79
2017-09-30T02:50:48.731Z,94.44
2017-09-30T02:53:17.792Z,94.29
2017-09-30T02:55:50.170Z,94.04
2017-09-30T02:58:19.518Z,94.21
2017-09-30T03:00:48.565Z,94.16
2017-09-30T03:03:17.615Z,95.85
2017-09-30T03:05:46.682Z,96.83
2017-09-30T03:08:17.674Z,97.76
2017-09-30T03:10:46.714Z,97.65
2017-09-30T03:13:15.754Z,97.60
2017-09-30T03:15:44.812Z,97.05
2017-09-30T03:18:13.871Z,96.92
2017-09-30T03:20:43.887Z,96.42
2017-09-30T03:23:12.937Z,96.10
2017-09-30T03:25:41.995Z,95.86
2017-09-30T03:28:11.071Z,95.70
2017-09-30T03:30:40.134Z,95.67
2017-09-30T03:33:09.233Z,95.45
2017-09-30T03:35:38.286Z,96.88
2017-09-30T03:38:07.331Z,97.53
2017-09-30T03:40:36.409Z,96.78
2017-09-30T03:43:05.446Z,96.33
2017-09-30T03:45:34.489Z,96.26
2017-09-30T03:48:03.532Z,96.29
2017-09-30T03:50:32.604Z,95.82
2017-09-30T03:53:01.663Z,94.13
2017-09-30T03:55:30.744Z,94.35
2017-09-30T03:57:59.793Z,94.39
2017-09-30T04:00:28.883Z,94.66
2017-09-30T04:02:57.923Z,95.47
2017-09-30T04:05:26.977Z,95.90
2017-09-30T04:07:56.045Z,95.45
2017-09-30T04:10:25.084Z,95.27
2017-09-30T04:12:54.167Z,95.43
2017-09-30T04:15:23.211Z,95.63
2017-09-30T04:17:52.263Z,96.29
2017-09-30T04:20:21.358Z,96.22
2017-09-30T04:22:50.405Z,96.23
2017-09-30T04:25:19.458Z,96.44
2017-09-30T04:27:48.518Z,96.39
2017-09-30T04:30:17.588Z,95.67
2017-09-30T04:32:46.637Z,95.59
2017-09-30T04:35:15.690Z,95.62
2017-09-30T04:37:44.745Z,96.67
2017-09-30T04:40:13.805Z,96.91
2017-09-30T04:42:42.875Z,97.97
2017-09-30T04:45:11.947Z,97.59
2017-09-30T04:47:41.003Z,97.56
2017-09-30T04:50:10.070Z,97.96
2017-09-30T04:52:39.119Z,98.98
2017-09-30T04:55:08.282Z,99.38
2017-09-30T04:57:37.330Z,98.77
2017-09-30T05:00:06.401Z,98.15
2017-09-30T05:02:36.472Z,97.63
2017-09-30T05:05:06.491Z,97.42
2017-09-30T05:07:35.687Z,97.60
2017-09-30T05:10:04.751Z,97.14
2017-09-30T05:12:33.803Z,96.99
2017-09-30T05:15:02.895Z,96.81
2017-09-30T05:17:32.003Z,96.67
2017-09-30T05:20:03.029Z,96.57
2017-09-30T05:22:33.242Z,96.56
2017-09-30T05:25:02.287Z,96.42
2017-09-30T05:27:32.042Z,96.22
2017-09-30T05:30:01.083Z,96.29
2017-09-30T05:32:30.138Z,96.21
2017-09-30T05:35:00.230Z,96.28
2017-09-30T05:37:29.330Z,96.10
2017-09-30T05:39:58.394Z,96.10
2017-09-30T05:42:27.439Z,96.02
2017-09-30T05:44:56.487Z,96.11
2017-09-30T05:47:25.539Z,96.87
2017-09-30T05:49:54.587Z,96.69
2017-09-30T05:52:23.679Z,96.27
2017-09-30T05:54:52.727Z,96.00
2017-09-30T05:57:21.802Z,95.58
2017-09-30T05:59:50.850Z,95.19
2017-09-30T06:02:19.901Z,94.44
2017-09-30T06:04:49.029Z,94.46
2017-09-30T06:07:18.087Z,94.40
2017-09-30T06:09:47.180Z,94.00
2017-09-30T06:12:16.242Z,93.92
2017-09-30T06:14:45.324Z,94.25
2017-09-30T06:17:14.470Z,94.32
2017-09-30T06:19:43.526Z,93.43
2017-09-30T06:22:12.608Z,94.05
2017-09-30T06:24:41.681Z,94.21
2017-09-30T06:27:10.730Z,94.23
2017-09-30T06:29:39.779Z,94.17
2017-09-30T06:32:08.862Z,93.51
2017-09-30T06:34:38.020Z,92.81
2017-09-30T06:37:07.172Z,92.97
2017-09-30T06:39:36.434Z,93.15
2017-09-30T06:42:05.475Z,92.50
2017-09-30T06:44:34.655Z,92.94
2017-09-30T06:47:03.715Z,92.54
2017-09-30T06:49:32.943Z,92.43
2017-09-30T06:52:01.979Z,91.76
2017-09-30T06:54:31.027Z,91.55
2017-09-30T06:57:00.070Z,91.53
2017-09-30T06:59:29.470Z,91.27
2017-09-30T07:01:58.538Z,91.02
2017-09-30T07:04:27.602Z,91.03
2017-09-30T07:06:56.672Z,90.92
2017-09-30T07:09:25.723Z,90.89
2017-09-30T07:11:54.784Z,90.81
2017-09-30T07:14:23.895Z,90.46
2017-09-30T07:16:52.946Z,90.17
2017-09-30T07:19:22.041Z,89.70
2017-09-30T07:21:51.100Z,89.27
2017-09-30T07:24:20.151Z,88.37
2017-09-30T07:26:49.206Z,88.07
2017-09-30T07:29:18.263Z,86.94
2017-09-30T07:31:47.320Z,87.10
2017-09-30T07:34:16.380Z,86.48
2017-09-30T07:36:45.426Z,85.34
2017-09-30T07:39:14.493Z,83.84
2017-09-30T07:41:43.542Z,84.65
2017-09-30T07:44:12.588Z,81.71
2017-09-30T07:46:41.650Z,82.56
2017-09-30T07:49:10.806Z,82.63
2017-09-30T07:51:39.893Z,81.39
2017-09-30T07:54:09.108Z,80.57
2017-09-30T07:56:38.297Z,79.07
2017-09-30T07:59:07.324Z,77.96
2017-09-30T08:01:36.455Z,78.99
2017-09-30T08:04:05.499Z,74.12
2017-09-30T08:06:34.553Z,75.27
2017-09-30T08:09:03.606Z,75.75
2017-09-30T08:11:32.644Z,72.22
2017-09-30T08:14:01.847Z,71.68
2017-09-30T08:16:30.886Z,72.27
2017-09-30T08:18:59.934Z,72.53
2017-09-30T08:21:28.987Z,72.01
2017-09-30T08:23:58.043Z,70.80
2017-09-30T08:26:29.100Z,71.36
2017-09-30T08:28:59.411Z,72.81
2017-09-30T08:31:28.493Z,72.78
2017-09-30T08:33:57.528Z,72.53
2017-09-30T08:36:26.566Z,71.41
2017-09-30T08:38:55.661Z,70.97
2017-09-30T08:41:24.699Z,66.12
2017-09-30T08:43:53.784Z,65.98
2017-09-30T08:46:22.839Z,65.08
2017-09-30T08:48:51.907Z,62.34
2017-09-30T08:51:20.980Z,66.74
2017-09-30T08:53:50.031Z,67.15
2017-09-30T08:56:19.070Z,64.11
2017-09-30T08:58:48.132Z,65.01
2017-09-30T09:01:17.225Z,63.18
2017-09-30T09:03:46.253Z,63.81
2017-09-30T09:06:15.321Z,60.95
2017-09-30T09:08:44.374Z,59.89
2017-09-30T09:11:13.428Z,56.87
2017-09-30T09:13:42.526Z,57.03
2017-09-30T09:16:11.570Z,49.66
2017-09-30T09:18:40.624Z,55.37
2017-09-30T09:21:09.701Z,52.53
2017-09-30T09:23:43.975Z,53.76
2017-09-30T09:26:18.238Z,53.88
2017-09-30T09:28:53.576Z,52.56
2017-09-30T09:31:28.313Z,51.96
2017-09-30T09:34:03.758Z,50.18
2017-09-30T09:36:39.424Z,49.73
2017-09-30T09:39:14.974Z,50.08
2017-09-30T09:41:49.967Z,48.77
2017-09-30T09:44:24.194Z,50.58
2017-09-30T09:46:59.733Z,50.12
2017-09-30T09:49:35.999Z,51.79
2017-09-30T09:52:10.796Z,50.48
2017-09-30T09:54:45.661Z,45.16
2017-09-30T09:57:21.300Z,51.94
2017-09-30T09:59:57.963Z,51.03
2017-09-30T10:02:32.288Z,51.67
2017-09-30T10:05:09.938Z,51.21
2017-09-30T10:07:45.122Z,52.71
2017-09-30T10:10:21.618Z,49.62
2017-09-30T10:12:55.096Z,52.23
2017-09-30T10:15:31.151Z,52.69
2017-09-30T10:18:05.978Z,52.60
2017-09-30T10:20:41.810Z,52.65
2017-09-30T10:23:15.259Z,52.17
2017-09-30T10:25:52.350Z,49.72
2017-09-30T10:28:27.140Z,50.57
2017-09-30T10:31:02.356Z,47.65
2017-09-30T10:33:37.252Z,49.75
2017-09-30T10:36:12.532Z,49.27
2017-09-30T10:38:46.728Z,46.74
2017-09-30T10:41:21.660Z,48.27
2017-09-30T10:43:56.697Z,49.42
2017-09-30T10:46:31.709Z,50.51
2017-09-30T10:49:06.534Z,49.68
2017-09-30T10:51:42.203Z,49.42
2017-09-30T10:54:15.878Z,48.12
2017-09-30T10:56:49.967Z,47.29
2017-09-30T10:59:25.460Z,47.67
2017-09-30T11:01:55.089Z,47.98
2017-09-30T11:04:24.429Z,47.04
2017-09-30T11:06:53.487Z,45.09
2017-09-30T11:09:22.629Z,43.85
2017-09-30T11:11:52.411Z,44.58
2017-09-30T11:14:21.645Z,45.43
2017-09-30T11:16:50.712Z,45.12
2017-09-30T11:19:19.746Z,47.80
2017-09-30T11:21:49.112Z,48.14
2017-09-30T11:24:18.210Z,46.64
2017-09-30T11:26:47.231Z,47.08
2017-09-30T11:29:16.288Z,46.51
2017-09-30T11:31:45.346Z,45.88
2017-09-30T11:34:14.382Z,43.11
2017-09-30T11:36:43.430Z,44.36
2017-09-30T11:39:12.468Z,41.05
2017-09-30T11:41:41.538Z,44.24
2017-09-30T11:44:10.588Z,43.76
2017-09-30T11:46:39.667Z,45.21
2017-09-30T11:49:08.769Z,41.83
2017-09-30T11:51:40.407Z,44.85
2017-09-30T11:54:09.455Z,45.23
2017-09-30T11:56:38.505Z,44.16
2017-09-30T11:59:07.567Z,44.91
2017-09-30T12:01:36.622Z,46.05
2017-09-30T12:04:05.707Z,46.76
2017-09-30T12:06:34.876Z,47.11
2017-09-30T12:09:03.915Z,45.91
2017-09-30T12:11:40.997Z,47.37
2017-09-30T12:14:12.181Z,47.26
2017-09-30T12:16:41.275Z,47.75
2017-09-30T12:19:10.342Z,47.38
2017-09-30T12:21:39.390Z,45.76
2017-09-30T12:24:08.496Z,44.66
2017-09-30T12:26:37.522Z,47.54
2017-09-30T12:29:06.723Z,46.60
2017-09-30T12:31:35.799Z,47.40
2017-09-30T12:34:04.856Z,47.16
2017-09-30T12:36:34.122Z,45.99
2017-09-30T12:39:03.151Z,47.33
2017-09-30T12:41:32.224Z,45.68
2017-09-30T12:44:01.274Z,44.37
2017-09-30T12:46:30.781Z,42.53
2017-09-30T12:48:59.846Z,41.58
2017-09-30T12:51:28.970Z,38.89
2017-09-30T12:53:58.034Z,36.09
2017-09-30T12:56:27.082Z,35.37
2017-09-30T12:58:56.226Z,33.46
2017-09-30T13:01:25.586Z,31.60
2017-09-30T13:03:54.682Z,32.86
2017-09-30T13:06:23.769Z,31.04
2017-09-30T13:08:52.804Z,33.61
2017-09-30T13:11:21.984Z,32.34
2017-09-30T13:13:51.024Z,29.92
2017-09-30T13:16:20.102Z,31.60
2017-09-30T13:18:49.152Z,32.74
2017-09-30T13:21:18.245Z,32.77
2017-09-30T13:23:47.398Z,30.37
2017-09-30T13:26:16.439Z,35.36
2017-09-30T13:28:45.603Z,34.46
2017-09-30T13:31:14.639Z,34.32
2017-09-30T13:33:43.793Z,34.92
2017-09-30T13:36:12.871Z,34.61
2017-09-30T13:38:41.950Z,35.49
2017-09-30T13:41:11.109Z,35.43
2017-09-30T13:43:40.634Z,32.61
2017-09-30T13:46:09.687Z,34.13
2017-09-30T13:48:38.996Z,34.23
2017-09-30T13:51:08.063Z,36.10
2017-09-30T13:53:38.335Z,36.70
2017-09-30T13:56:08.154Z,36.15
2017-09-30T13:58:43.681Z,37.12
2017-09-30T14:01:17.591Z,37.50
2017-09-30T14:03:46.723Z,39.10
2017-09-30T14:06:15.764Z,40.66
2017-09-30T14:08:44.906Z,40.67
2017-09-30T14:11:13.951Z,40.85
2017-09-30T14:13:42.975Z,41.31
2017-09-30T14:16:12.038Z,40.87
2017-09-30T14:18:41.179Z,41.23
2017-09-30T14:21:10.222Z,42.28
2017-09-30T14:23:41.220Z,44.03
2017-09-30T14:26:12.822Z,42.87
2017-09-30T14:28:41.946Z,43.03
2017-09-30T14:31:11.007Z,43.98
2017-09-30T14:33:40.081Z,44.69
2017-09-30T14:36:09.324Z,46.90
2017-09-30T14:38:38.365Z,44.78
2017-09-30T14:41:07.422Z,45.30
2017-09-30T14:43:36.501Z,45.92
2017-09-30T14:46:05.593Z,49.48
2017-09-30T14:48:34.671Z,46.54
2017-09-30T14:51:03.750Z,46.97
2017-09-30T14:53:32.803Z,48.00
2017-09-30T14:56:02.139Z,49.06
2017-09-30T14:58:31.343Z,51.07
2017-09-30T15:01:00.411Z,49.79
2017-09-30T15:03:29.480Z,50.19
2017-09-30T15:05:58.554Z,51.57
2017-09-30T15:08:28.918Z,50.21
2017-09-30T15:10:58.067Z,49.20
2017-09-30T15:13:27.133Z,50.89
2017-09-30T15:15:56.172Z,49.97
2017-09-30T15:18:25.263Z,52.84
2017-09-30T15:20:54.998Z,50.72
2017-09-30T15:23:24.138Z,52.87
2017-09-30T15:25:53.270Z,51.89
2017-09-30T15:28:22.370Z,56.59
2017-09-30T15:30:51.551Z,56.85
2017-09-30T15:33:20.657Z,56.45
2017-09-30T15:35:49.758Z,55.98
2017-09-30T15:38:18.799Z,59.72
2017-09-30T15:40:47.843Z,60.69
2017-09-30T15:43:17.808Z,56.69
2017-09-30T15:45:46.854Z,57.08
2017-09-30T15:48:16.691Z,60.68
2017-09-30T15:50:45.754Z,60.01
2017-09-30T15:53:14.898Z,58.42
2017-09-30T15:55:43.995Z,62.66
2017-09-30T15:58:13.046Z,58.94
2017-09-30T16:00:42.099Z,60.68
2017-09-30T16:03:11.180Z,63.30
2017-09-30T16:05:40.294Z,62.30
2017-09-30T16:08:09.396Z,61.39
2017-09-30T16:10:38.501Z,63.58
2017-09-30T16:13:07.600Z,62.34
2017-09-30T16:15:36.688Z,62.39
2017-09-30T16:18:05.738Z,63.86
2017-09-30T16:20:34.799Z,65.32
2017-09-30T16:23:05.932Z,64.34
2017-09-30T16:25:34.971Z,65.08
2017-09-30T16:28:04.068Z,65.32
2017-09-30T16:30:33.118Z,66.32
2017-09-30T16:33:02.173Z,67.61
2017-09-30T16:35:31.279Z,68.08
2017-09-30T16:38:01.225Z,69.02
2017-09-30T16:40:30.282Z,66.16
2017-09-30T16:42:59.331Z,68.81
2017-09-30T16:45:28.405Z,69.37
2017-09-30T16:47:57.494Z,68.35
2017-09-30T16:50:26.549Z,71.03
2017-09-30T16:52:55.612Z,69.86
2017-09-30T16:55:24.654Z,71.66
2017-09-30T16:57:54.666Z,71.37
2017-09-30T17:00:23.755Z,71.72
2017-09-30T17:02:52.799Z,72.70
2017-09-30T17:05:21.890Z,72.51
2017-09-30T17:07:50.948Z,72.07
2017-09-30T17:10:20.001Z,71.62
2017-09-30T17:12:49.992Z,71.96
2017-09-30T17:15:19.046Z,73.43
2017-09-30T17:17:48.471Z,72.37
2017-09-30T17:20:17.487Z,74.23
2017-09-30T17:22:46.529Z,77.12
2017-09-30T17:25:15.616Z,75.04
2017-09-30T17:27:44.711Z,75.32
2017-09-30T17:30:13.763Z,76.72
2017-09-30T17:32:42.827Z,80.76
2017-09-30T17:35:11.890Z,83.44
2017-09-30T17:37:40.964Z,84.50
2017-09-30T17:40:10.009Z,83.10
2017-09-30T17:42:39.075Z,79.68
2017-09-30T17:45:08.126Z,79.00
2017-09-30T17:47:37.225Z,79.18
2017-09-30T17:50:06.276Z,80.70
2017-09-30T17:52:35.318Z,79.02
2017-09-30T17:55:04.425Z,77.91
2017-09-30T17:57:33.470Z,80.87
2017-09-30T18:00:02.684Z,81.26
2017-09-30T18:02:31.730Z,81.71
2017-09-30T18:05:00.775Z,85.57
2017-09-30T18:07:29.871Z,85.33
2017-09-30T18:09:59.892Z,82.60
2017-09-30T18:12:28.933Z,81.01
2017-09-30T18:14:57.990Z,81.93
2017-09-30T18:17:27.093Z,80.84
2017-09-30T18:19:56.150Z,84.37
2017-09-30T18:22:26.215Z,85.90
2017-09-30T18:24:55.274Z,82.00
2017-09-30T18:27:24.318Z,85.32
2017-09-30T18:29:53.374Z,84.36
2017-09-30T18:32:22.414Z,83.12
2017-09-30T18:34:53.578Z,78.83
2017-09-30T18:37:22.654Z,83.34
2017-09-30T18:39:52.671Z,85.59
2017-09-30T18:42:21.725Z,81.55
2017-09-30T18:44:50.774Z,85.72
2017-09-30T18:47:19.828Z,84.96
2017-09-30T18:49:48.875Z,84.32
2017-09-30T18:52:17.958Z,84.07
2017-09-30T18:54:47.020Z,86.95
2017-09-30T18:57:16.086Z,87.38
2017-09-30T18:59:45.147Z,84.82
2017-09-30T19:02:14.230Z,86.71
2017-09-30T19:04:43.282Z,87.36
2017-09-30T19:07:12.351Z,87.34
2017-09-30T19:09:41.402Z,85.74
2017-09-30T19:12:10.557Z,86.63
2017-09-30T19:14:39.614Z,84.42
2017-09-30T19:17:08.669Z,85.00
2017-09-30T19:19:37.733Z,85.31
2017-09-30T19:22:06.776Z,86.42
2017-09-30T19:24:35.846Z,86.71
2017-09-30T19:27:04.903Z,88.03
2017-09-30T19:29:33.962Z,87.81
2017-09-30T19:32:03.033Z,84.61
2017-09-30T19:34:32.102Z,85.63
2017-09-30T19:37:01.175Z,86.17
2017-09-30T19:39:30.222Z,87.92
2017-09-30T19:42:00.272Z,87.11
2017-09-30T19:44:29.327Z,87.41
2017-09-30T19:46:58.510Z,87.57
2017-09-30T19:49:27.584Z,87.37
2017-09-30T19:51:57.690Z,85.72
2017-09-30T19:54:26.756Z,86.01
2017-09-30T19:56:55.829Z,85.81
2017-09-30T19:59:24.878Z,86.23
2017-09-30T20:01:53.966Z,86.82
2017-09-30T20:04:23.006Z,87.21
2017-09-30T20:06:52.110Z,87.70
2017-09-30T20:09:21.158Z,88.03
2017-09-30T20:11:50.207Z,88.13
2017-09-30T20:14:19.274Z,88.03
2017-09-30T20:16:48.379Z,87.05
2017-09-30T20:19:17.435Z,87.18
2017-09-30T20:21:46.475Z,87.71
2017-09-30T20:24:15.549Z,86.75
2017-09-30T20:26:44.643Z,86.13
2017-09-30T20:29:13.721Z,86.70
2017-09-30T20:31:42.829Z,85.58
2017-09-30T20:34:11.901Z,83.72
2017-09-30T20:36:40.950Z,81.95
2017-09-30T20:39:09.994Z,80.94
2017-09-30T20:41:39.057Z,80.79
2017-09-30T20:44:08.112Z,81.38
2017-09-30T20:46:37.153Z,82.49
2017-09-30T20:49:06.250Z,82.84
2017-09-30T20:51:35.299Z,83.28
2017-09-30T20:54:04.354Z,83.51
2017-09-30T20:56:33.409Z,83.85
2017-09-30T20:59:02.501Z,84.55
2017-09-30T21:01:31.544Z,84.36
2017-09-30T21:04:02.595Z,84.35
2017-09-30T21:06:31.624Z,84.17
2017-09-30T21:09:00.716Z,84.65
2017-09-30T21:11:29.755Z,85.17
2017-09-30T21:13:58.803Z,85.28
2017-09-30T21:16:27.966Z,86.12
2017-09-30T21:18:59.131Z,85.83
2017-09-30T21:21:28.151Z,85.84
2017-09-30T21:23:57.191Z,86.27
2017-09-30T21:26:26.239Z,86.39
2017-09-30T21:28:55.289Z,85.92
2017-09-30T21:31:24.393Z,86.61
2017-09-30T21:33:54.024Z,86.83
2017-09-30T21:36:23.067Z,86.70
2017-09-30T21:38:52.128Z,86.96
2017-09-30T21:41:21.170Z,86.78
2017-09-30T21:43:50.408Z,87.67
2017-09-30T21:46:19.463Z,86.96
2017-09-30T21:48:48.497Z,87.55
2017-09-30T21:51:17.547Z,87.46
2017-09-30T21:53:46.606Z,87.95
2017-09-30T21:56:15.645Z,88.10
2017-09-30T21:58:44.743Z,87.80
2017-09-30T22:01:13.790Z,87.78
2017-09-30T22:03:42.854Z,88.59
2017-09-30T22:06:11.982Z,88.19
2017-09-30T22:08:41.033Z,88.94
2017-09-30T22:11:10.067Z,88.59
2017-09-30T22:13:39.123Z,88.13
2017-09-30T22:16:08.165Z,88.36
2017-09-30T22:18:37.238Z,88.03
2017-09-30T22:21:06.306Z,87.65
2017-09-30T22:23:35.325Z,87.93
2017-09-30T22:26:04.364Z,88.27
2017-09-30T22:28:33.431Z,87.88
2017-09-30T22:31:02.504Z,88.49
2017-09-30T22:33:31.580Z,89.49
2017-09-30T22:36:00.618Z,89.29
2017-09-30T22:38:29.662Z,89.43
2017-09-30T22:40:58.740Z,90.25
2017-09-30T22:43:27.775Z,90.71
2017-09-30T22:45:56.827Z,90.72
2017-09-30T22:48:25.918Z,90.27
2017-09-30T22:50:55.010Z,90.99
2017-09-30T22:53:24.075Z,91.05
2017-09-30T22:55:53.115Z,91.54
2017-09-30T22:58:22.418Z,91.86
2017-09-30T23:00:51.452Z,91.37
2017-09-30T23:03:20.492Z,90.80
2017-09-30T23:05:49.529Z,90.94
2017-09-30T23:08:18.582Z,90.42
2017-09-30T23:10:47.642Z,90.19
2017-09-30T23:13:16.683Z,89.78
2017-09-30T23:15:45.722Z,89.66
2017-09-30T23:18:14.866Z,89.30
2017-09-30T23:20:43.911Z,88.96
2017-09-30T23:23:15.377Z,88.96
2017-09-30T23:25:44.406Z,89.15
2017-09-30T23:28:13.459Z,89.47
2017-09-30T23:30:42.507Z,89.99
2017-09-30T23:33:11.551Z,90.26
2017-09-30T23:35:40.594Z,90.95
2017-09-30T23:38:09.659Z,92.05
2017-09-30T23:40:38.708Z,92.90
2017-09-30T23:43:07.883Z,92.23
2017-09-30T23:45:36.911Z,91.70
2017-09-30T23:48:05.950Z,93.31
2017-09-30T23:50:35.019Z,93.63
2017-09-30T23:53:04.063Z,92.58
2017-09-30T23:55:33.106Z,92.19
2017-09-30T23:58:02.150Z,92.67
